Strona główna
METAR-TAF:

METAR-TAF

Lotnisko :

Foggia, Włochy

Szerokość geograficzna: 41-32N, Długość geograficzna: 015-43E, wysokość: 57 m

Aktualna obserwacja pogody

Raport powstał 46 minut temu, godzina 10:55 UTC
Wiatr 7 kt od wschód
Temperatura 12°C
Wilgotność 58%
Ciśnienie 1013 hPa
Widzialność 10 km lub więcej
Mało chmury na wysokości 3000 ft

METAR: LIBA 031055Z 09007KT 9999 FEW030 12/04 Q1013 RMK BKN BKN150 VIS MIN 9999 WIND THR11 06007KT WIND THR29 /////KT BLU

czas: 13:41 (11:41 UTC)

Prognoza

Raport powstał 41 minut temu, godzina 11:00 UTC
Prognoza ważna od 03 godzina 12 UTC do 03 godzina 21 UTC
Wiatr 12 kt od wschód
Widzialność 10 km lub więcej
Przerywane chmury na wysokości 3000 ft
Przerywane chmury na wysokości 6000 ft

TAF: LIBA 031100Z 0312/0321 09012KT 9999 SCT030TEMPO 0312/0318 BKN030 BKN060

Obserwacja i prognoza pogody dla ponad 4000 lotnisk (raport METAR i TAF).

Dostępne stacje oznaczono żółtymi i czerwonymi punktami na mapie.

Najedź kursorem aby zobaczyć nazwę stacji.

Kliknij aby zobaczyć obserwacje i prognozy pogody.

Aby zmienić mapę: kliknij na zielony przycisk z czarnym krzyżykiem, aby powiększyć; na zielony przycisk z myślnikiem, aby pomniejszyć; na zielone strzałki, aby przejść do map sąsiednich.


METAR-TAF: